Time;durP1;ratioP1;P1;durP2;ratioP2;P2;SDS_P1;SDS_P2;PMS_P1;PMS_P2;Temp;Humidity;BMP_temperature;BMP_pressure;BME280_temperature;BME280_humidity;BME280_pressure;Samples;Min_cycle;Max_cycle;Signal;HPM_P1;HPM_P2
2023/01/25 00:01:53;;;;;;;35.25;25.92;;;4.10;90.10;;;;;;5049472;28;20474;-79
2023/01/25 00:04:19;;;;;;;34.90;26.17;;;4.10;90.00;;;;;;5050344;28;20025;-77
2023/01/25 00:06:46;;;;;;;35.72;24.98;;;4.10;89.80;;;;;;5050058;28;20104;-77
2023/01/25 00:09:12;;;;;;;35.17;25.88;;;4.00;89.50;;;;;;5048541;28;20483;-77
2023/01/25 00:11:38;;;;;;;40.35;26.70;;;4.00;89.50;;;;;;5046880;28;20021;-78
2023/01/25 00:14:04;;;;;;;36.53;26.55;;;4.00;89.70;;;;;;5050036;28;20475;-79
2023/01/25 00:16:30;;;;;;;35.45;25.77;;;4.00;89.70;;;;;;5049214;28;20017;-77
2023/01/25 00:18:55;;;;;;;37.15;26.75;;;4.00;89.50;;;;;;5049081;28;20037;-77
2023/01/25 00:21:23;;;;;;;39.92;26.90;;;4.00;89.50;;;;;;5049738;28;20420;-78
2023/01/25 00:23:50;;;;;;;35.97;26.58;;;4.00;89.50;;;;;;5049880;28;20554;-79
2023/01/25 00:26:16;;;;;;;36.58;27.15;;;4.00;89.40;;;;;;5050009;28;20045;-78
2023/01/25 00:28:42;;;;;;;36.78;27.70;;;4.00;89.40;;;;;;5041374;28;20139;-79
2023/01/25 00:31:14;;;;;;;38.78;27.15;;;4.00;89.50;;;;;;5048332;28;20071;-77
2023/01/25 00:33:48;;;;;;;36.08;26.23;;;4.00;89.40;;;;;;5049356;28;20402;-78
2023/01/25 00:36:33;;;;;;;41.50;28.50;;;4.00;89.40;;;;;;5050006;28;20021;-77
2023/01/25 00:38:59;;;;;;;39.83;29.13;;;4.00;89.70;;;;;;5049450;28;20479;-77
2023/01/25 00:41:25;;;;;;;41.35;28.13;;;4.00;89.40;;;;;;5049385;28;20104;-78
2023/01/25 00:43:50;;;;;;;35.28;25.92;;;4.00;89.30;;;;;;5049015;28;20606;-78
2023/01/25 00:46:17;;;;;;;34.63;26.67;;;4.00;89.40;;;;;;5043440;28;20108;-78
2023/01/25 00:48:43;;;;;;;37.08;26.42;;;4.00;89.40;;;;;;5046673;28;20083;-77
2023/01/25 00:51:09;;;;;;;38.05;27.40;;;3.90;89.10;;;;;;5040470;28;20208;-78
2023/01/25 00:53:35;;;;;;;35.53;27.08;;;4.00;89.30;;;;;;5048717;28;20087;-79
2023/01/25 00:56:01;;;;;;;39.45;28.88;;;4.00;89.50;;;;;;5037731;28;20483;-77
2023/01/25 00:58:26;;;;;;;37.47;26.83;;;4.00;89.50;;;;;;5047026;28;20025;-79
2023/01/25 01:00:53;;;;;;;38.03;27.13;;;4.00;89.30;;;;;;5049446;28;20035;-77
2023/01/25 01:03:19;;;;;;;37.25;26.77;;;4.00;89.10;;;;;;5048446;28;20025;-78
2023/01/25 01:05:45;;;;;;;38.55;27.10;;;4.00;89.20;;;;;;5049188;28;20477;-77
2023/01/25 01:08:12;;;;;;;35.22;27.13;;;4.00;89.10;;;;;;5048027;28;20076;-77
2023/01/25 01:10:38;;;;;;;36.90;27.20;;;4.00;89.10;;;;;;5049026;28;20017;-76
2023/01/25 01:13:05;;;;;;;37.92;26.02;;;4.00;89.00;;;;;;5043132;28;20043;-79
2023/01/25 01:15:30;;;;;;;33.55;26.13;;;4.00;89.20;;;;;;5048442;28;20040;-77
2023/01/25 01:17:56;;;;;;;39.30;28.40;;;3.90;89.20;;;;;;5048454;28;20025;-78
2023/01/25 01:20:22;;;;;;;38.03;28.27;;;3.90;89.00;;;;;;5048895;28;20033;-77
2023/01/25 01:22:51;;;;;;;41.47;28.35;;;3.90;89.00;;;;;;5048028;28;20022;-78
2023/01/25 01:25:16;;;;;;;38.80;27.95;;;3.80;88.80;;;;;;5047692;28;20049;-78
2023/01/25 01:27:42;;;;;;;38.25;27.80;;;3.80;89.10;;;;;;5034342;28;20033;-78
2023/01/25 01:30:08;;;;;;;38.63;28.55;;;3.80;89.20;;;;;;5048654;28;20028;-78
2023/01/25 01:32:34;;;;;;;39.35;28.02;;;3.80;89.20;;;;;;5047018;28;20020;-77
2023/01/25 01:34:59;;;;;;;35.83;27.48;;;3.80;89.20;;;;;;5049874;28;20188;-77
2023/01/25 01:37:25;;;;;;;36.10;26.17;;;3.90;89.60;;;;;;5047387;28;20025;-78
2023/01/25 01:39:51;;;;;;;36.97;27.80;;;3.90;89.60;;;;;;5048538;28;20032;-77
2023/01/25 01:42:16;;;;;;;36.00;25.50;;;4.00;89.30;;;;;;5048723;28;20071;-77
2023/01/25 01:44:52;;;;;;;36.10;28.05;;;4.00;88.90;;;;;;5046257;28;20048;-78
2023/01/25 01:47:23;;;;;;;38.72;27.75;;;3.90;88.70;;;;;;5047052;28;20514;-77
2023/01/25 01:49:56;;;;;;;35.97;26.95;;;3.90;88.40;;;;;;5047487;28;20021;-77
2023/01/25 01:52:29;;;;;;;38.45;28.50;;;3.60;88.60;;;;;;5048031;28;20028;-78
2023/01/25 01:55:07;;;;;;;39.03;27.48;;;3.60;89.10;;;;;;5047851;28;20021;-78
2023/01/25 01:57:42;;;;;;;35.45;25.23;;;3.60;89.30;;;;;;5048419;28;20044;-78
2023/01/25 02:00:12;;;;;;;40.75;28.83;;;3.60;89.30;;;;;;5047707;28;20518;-78
2023/01/25 02:02:37;;;;;;;;;;;3.50;89.10;;;;;;5046651;28;20028;-77
2023/01/25 02:05:08;;;;;;;37.08;27.52;;;3.50;89.40;;;;;;5042769;28;20295;-78
2023/01/25 02:07:36;;;;;;;38.63;28.02;;;3.50;89.50;;;;;;5047460;28;20029;-77
2023/01/25 02:10:05;;;;;;;41.53;28.92;;;3.50;89.70;;;;;;5038778;28;20025;-78
2023/01/25 02:12:31;;;;;;;38.40;28.13;;;3.60;90.00;;;;;;5051473;28;20025;-79
2023/01/25 02:14:57;;;;;;;38.72;28.40;;;3.70;90.30;;;;;;5047464;28;20403;-78
2023/01/25 02:17:26;;;;;;;39.17;27.98;;;3.70;89.90;;;;;;5048009;28;20502;-78
2023/01/25 02:19:52;;;;;;;36.80;26.92;;;3.70;89.90;;;;;;5046524;28;20063;-79
2023/01/25 02:22:24;;;;;;;38.22;27.52;;;3.70;90.10;;;;;;5047913;28;20078;-78
2023/01/25 02:25:04;;;;;;;38.60;27.95;;;3.70;89.80;;;;;;5046935;28;20045;-76
2023/01/25 02:27:31;;;;;;;42.67;27.98;;;3.70;89.90;;;;;;5050887;28;20100;-78
2023/01/25 02:29:57;;;;;;;40.33;29.15;;;3.70;89.60;;;;;;5035450;28;20292;-78
2023/01/25 02:32:23;;;;;;;40.33;28.65;;;3.70;89.70;;;;;;5048487;28;20075;-78
2023/01/25 02:34:49;;;;;;;41.75;29.08;;;3.60;89.80;;;;;;5036492;28;20037;-78
2023/01/25 02:37:15;;;;;;;41.42;29.83;;;3.50;89.80;;;;;;5048151;28;20021;-77
2023/01/25 02:39:42;;;;;;;43.15;29.60;;;3.50;89.90;;;;;;5045118;28;20025;-77
2023/01/25 02:42:07;;;;;;;38.95;27.15;;;3.40;90.20;;;;;;5048433;28;20453;-79
2023/01/25 02:44:34;;;;;;;43.10;30.10;;;3.30;90.00;;;;;;5044521;28;20107;-79
2023/01/25 02:46:59;;;;;;;38.92;28.60;;;3.30;90.10;;;;;;5046685;28;20037;-79
2023/01/25 02:49:25;;;;;;;42.90;30.52;;;3.30;90.30;;;;;;5048231;28;20018;-79
2023/01/25 02:51:56;;;;;;;38.13;27.38;;;3.30;90.30;;;;;;5047131;28;20109;-78
2023/01/25 02:54:22;;;;;;;43.30;30.58;;;3.30;90.20;;;;;;5048074;28;20025;-77
2023/01/25 02:56:48;;;;;;;41.38;29.13;;;3.30;90.00;;;;;;5045375;28;20846;-78
2023/01/25 02:59:14;;;;;;;43.05;31.33;;;3.40;89.80;;;;;;5046469;28;20013;-78
2023/01/25 03:01:41;;;;;;;42.28;29.27;;;3.40;89.90;;;;;;5047695;28;20386;-79
2023/01/25 03:04:07;;;;;;;41.00;30.35;;;3.30;89.80;;;;;;5050302;28;20025;-79
2023/01/25 03:06:34;;;;;;;46.15;29.88;;;3.40;90.00;;;;;;5051025;28;20104;-78
2023/01/25 03:09:00;;;;;;;39.42;28.42;;;3.40;90.00;;;;;;5050820;28;20596;-77
2023/01/25 03:11:26;;;;;;;41.08;29.35;;;3.40;90.00;;;;;;5050362;28;20650;-77
2023/01/25 03:13:52;;;;;;;40.00;28.27;;;3.40;90.00;;;;;;5050010;28;20028;-78
2023/01/25 03:16:18;;;;;;;40.75;29.55;;;3.40;90.00;;;;;;5037235;28;20025;-77
2023/01/25 03:18:44;;;;;;;41.15;29.33;;;3.40;90.00;;;;;;5049054;28;20017;-77
2023/01/25 03:21:13;;;;;;;40.65;30.27;;;3.50;90.00;;;;;;5050974;28;20399;-78
2023/01/25 03:23:40;;;;;;;42.67;30.05;;;3.50;89.80;;;;;;5049902;28;20025;-77
2023/01/25 03:26:12;;;;;;;39.47;29.25;;;3.60;89.50;;;;;;5050838;28;20051;-77
2023/01/25 03:28:39;;;;;;;44.10;31.42;;;3.50;89.70;;;;;;5046486;28;20720;-77
2023/01/25 03:31:06;;;;;;;41.67;30.20;;;3.50;89.40;;;;;;5050715;28;20025;-78
2023/01/25 03:33:31;;;;;;;40.50;29.75;;;3.50;89.50;;;;;;5048012;28;20021;-80
2023/01/25 03:35:58;;;;;;;41.75;29.85;;;3.50;89.80;;;;;;5054957;28;20510;-78
2023/01/25 03:38:24;;;;;;;44.25;28.88;;;3.60;90.00;;;;;;5050816;28;20044;-77
2023/01/25 03:40:50;;;;;;;43.58;30.35;;;3.50;90.00;;;;;;5041655;28;20022;-78
2023/01/25 03:43:16;;;;;;;41.58;30.17;;;3.50;90.00;;;;;;5043987;28;20487;-78
2023/01/25 03:45:42;;;;;;;42.10;29.45;;;3.50;90.00;;;;;;5049877;28;20013;-78
2023/01/25 03:48:07;;;;;;;41.70;30.63;;;3.40;90.00;;;;;;5050161;28;20056;-78
2023/01/25 03:50:33;;;;;;;41.47;30.42;;;3.30;90.10;;;;;;5050246;28;20383;-77
2023/01/25 03:53:06;;;;;;;45.35;32.75;;;3.30;90.40;;;;;;5044870;28;20086;-78
2023/01/25 03:55:35;;;;;;;43.67;31.50;;;3.40;90.40;;;;;;5050021;28;20040;-77
2023/01/25 03:58:01;;;;;;;43.63;31.17;;;3.40;90.50;;;;;;5049922;28;20029;-77
2023/01/25 04:00:26;;;;;;;44.53;31.95;;;3.30;90.30;;;;;;5049281;28;20021;-77
2023/01/25 04:02:52;;;;;;;44.17;29.55;;;3.30;90.30;;;;;;5056161;28;20025;-78
2023/01/25 04:05:20;;;;;;;44.88;31.50;;;3.30;90.10;;;;;;5049870;28;20021;-77
2023/01/25 04:07:45;;;;;;;43.67;30.75;;;3.30;90.20;;;;;;5048499;28;20567;-78
2023/01/25 04:10:11;;;;;;;42.53;30.15;;;3.30;90.20;;;;;;5049905;28;20032;-78
2023/01/25 04:12:37;;;;;;;43.78;29.85;;;3.30;90.20;;;;;;5048763;28;20017;-77
2023/01/25 04:15:03;;;;;;;44.10;29.60;;;3.20;90.10;;;;;;5051798;28;20036;-76
2023/01/25 04:17:29;;;;;;;40.88;29.20;;;3.30;90.20;;;;;;5048478;28;20198;-77
2023/01/25 04:19:55;;;;;;;41.35;28.15;;;3.30;90.20;;;;;;5052639;28;20027;-77
2023/01/25 04:22:20;;;;;;;41.70;29.90;;;3.20;90.10;;;;;;5049193;28;20445;-78
2023/01/25 04:24:46;;;;;;;43.65;29.13;;;3.20;90.10;;;;;;5047644;28;20051;-77
2023/01/25 04:27:11;;;;;;;44.85;30.38;;;3.20;90.30;;;;;;5048177;28;20166;-77
2023/01/25 04:29:37;;;;;;;44.92;30.33;;;3.20;90.20;;;;;;5048253;28;20036;-78
2023/01/25 04:32:03;;;;;;;42.63;28.73;;;3.30;90.20;;;;;;5047919;28;20024;-77
2023/01/25 04:34:29;;;;;;;42.00;30.05;;;3.30;90.10;;;;;;5049253;28;20481;-78
2023/01/25 04:36:55;;;;;;;41.67;29.48;;;3.30;90.00;;;;;;5049572;28;20128;-78
2023/01/25 04:39:21;;;;;;;41.22;29.08;;;3.30;90.00;;;;;;5049840;28;20791;-77
2023/01/25 04:41:46;;;;;;;42.67;30.88;;;3.30;89.90;;;;;;5044484;28;20028;-78
2023/01/25 04:44:12;;;;;;;42.40;29.40;;;3.30;89.80;;;;;;5049483;28;20021;-79
2023/01/25 04:46:37;;;;;;;41.70;30.02;;;3.30;89.40;;;;;;5049156;28;20021;-78
2023/01/25 04:49:03;;;;;;;44.63;32.20;;;3.40;89.60;;;;;;5048728;28;20041;-77
2023/01/25 04:51:29;;;;;;;45.85;30.63;;;3.40;89.50;;;;;;5054580;28;20040;-78
2023/01/25 04:53:54;;;;;;;45.20;30.17;;;3.40;89.50;;;;;;5039818;28;20104;-77
2023/01/25 04:56:22;;;;;;;43.00;30.92;;;3.50;89.50;;;;;;5049529;28;20021;-77
2023/01/25 04:58:48;;;;;;;44.10;31.65;;;3.50;89.40;;;;;;5039978;28;20029;-77
2023/01/25 05:01:13;;;;;;;45.13;31.65;;;3.50;89.20;;;;;;5048572;28;20036;-77
2023/01/25 05:03:39;;;;;;;45.47;31.98;;;3.50;89.40;;;;;;5049175;28;20078;-77
2023/01/25 05:06:05;;;;;;;47.08;34.15;;;3.50;90.00;;;;;;5047525;28;20020;-79
2023/01/25 05:08:30;;;;;;;44.45;31.05;;;3.40;89.50;;;;;;5047726;28;20074;-78
2023/01/25 05:10:56;;;;;;;48.35;33.70;;;3.30;89.90;;;;;;5040469;28;20558;-77
2023/01/25 05:13:24;;;;;;;49.67;32.05;;;3.10;90.10;;;;;;5048817;28;20032;-78
2023/01/25 05:15:49;;;;;;;48.58;34.30;;;3.10;90.30;;;;;;5048076;28;20105;-78
2023/01/25 05:18:15;;;;;;;52.75;34.97;;;3.00;90.40;;;;;;5048239;28;20112;-79
2023/01/25 05:20:40;;;;;;;51.75;35.25;;;3.10;90.50;;;;;;5060133;28;20110;-79
2023/01/25 05:23:06;;;;;;;50.28;33.97;;;3.10;90.40;;;;;;5043885;28;20063;-78
2023/01/25 05:28:16;;;;;;;50.58;34.05;;;3.00;90.50;;;;;;5041488;28;20048;-78
2023/01/25 05:30:41;;;;;;;55.83;35.03;;;3.00;90.70;;;;;;5040151;28;20777;-78
2023/01/25 05:33:07;;;;;;;50.90;34.70;;;2.90;90.70;;;;;;5055465;28;20025;-78
2023/01/25 05:35:33;;;;;;;52.15;34.28;;;2.90;90.90;;;;;;5029467;28;20029;-79
2023/01/25 05:37:58;;;;;;;73.05;42.17;;;2.90;90.80;;;;;;5047027;28;20095;-78
2023/01/25 05:40:25;;;;;;;53.38;35.58;;;3.00;90.90;;;;;;5047454;28;20021;-79
2023/01/25 05:42:58;;;;;;;47.60;32.65;;;3.00;90.70;;;;;;5046643;28;20498;-78
2023/01/25 05:45:24;;;;;;;50.65;34.17;;;3.00;90.50;;;;;;5048214;28;20025;-78
2023/01/25 05:47:55;;;;;;;49.70;34.67;;;3.00;90.60;;;;;;5046388;28;20115;-79
2023/01/25 05:50:22;;;;;;;52.30;34.92;;;3.00;90.70;;;;;;5048474;28;20107;-78
2023/01/25 05:52:48;;;;;;;48.70;33.80;;;3.00;90.60;;;;;;5048243;28;20521;-78
2023/01/25 05:55:14;;;;;;;52.78;34.85;;;3.10;90.80;;;;;;5048761;28;20045;-79
2023/01/25 05:57:39;;;;;;;50.20;33.03;;;3.20;90.50;;;;;;5037142;28;20025;-77
2023/01/25 06:00:06;;;;;;;56.22;37.13;;;3.20;90.30;;;;;;5045626;28;20026;-77
2023/01/25 06:02:32;;;;;;;54.58;37.25;;;3.20;90.40;;;;;;5048203;28;20033;-77
2023/01/25 06:04:57;;;;;;;52.92;34.80;;;3.20;90.30;;;;;;5046480;28;20525;-77
2023/01/25 06:07:23;;;;;;;52.83;33.97;;;3.30;90.20;;;;;;5047211;28;20098;-77
2023/01/25 06:09:49;;;;;;;52.97;35.75;;;3.20;90.10;;;;;;5047918;28;20032;-77
2023/01/25 06:12:15;;;;;;;51.47;35.58;;;3.20;90.20;;;;;;5046299;28;20040;-78
2023/01/25 06:14:41;;;;;;;53.83;35.55;;;3.30;90.20;;;;;;5046674;28;20112;-78
2023/01/25 06:17:08;;;;;;;53.85;37.38;;;3.30;90.30;;;;;;5047722;28;20021;-78
2023/01/25 06:19:33;;;;;;;54.13;37.50;;;3.30;90.20;;;;;;5046344;28;20032;-79
2023/01/25 06:21:59;;;;;;;55.13;37.50;;;3.30;90.10;;;;;;5046545;28;20030;-79
2023/01/25 06:24:25;;;;;;;50.20;33.88;;;3.20;90.20;;;;;;5044658;28;20025;-78
2023/01/25 06:26:50;;;;;;;54.28;37.30;;;3.20;90.30;;;;;;5042873;28;20057;-78
2023/01/25 06:29:16;;;;;;;55.45;36.58;;;3.20;90.40;;;;;;5046510;28;20517;-78
2023/01/25 06:31:42;;;;;;;50.83;34.45;;;3.20;90.50;;;;;;5046422;28;20139;-77
2023/01/25 06:34:08;;;;;;;57.15;37.08;;;3.20;90.50;;;;;;5050905;28;20032;-77
2023/01/25 06:36:34;;;;;;;54.03;35.75;;;3.20;90.60;;;;;;5048847;28;20024;-77
2023/01/25 06:39:00;;;;;;;51.85;35.80;;;3.20;90.60;;;;;;5050922;28;20033;-78
2023/01/25 06:41:26;;;;;;;50.55;34.15;;;3.20;90.50;;;;;;5051631;28;20024;-78
2023/01/25 06:43:51;;;;;;;53.00;36.83;;;3.20;90.60;;;;;;5051177;28;20063;-77
2023/01/25 06:46:18;;;;;;;55.42;36.58;;;3.20;90.50;;;;;;5051548;28;20067;-78
2023/01/25 06:48:43;;;;;;;51.90;34.05;;;3.00;90.50;;;;;;5050351;28;20033;-78
2023/01/25 06:51:12;;;;;;;55.33;36.08;;;3.10;90.70;;;;;;5051814;28;20021;-78
2023/01/25 06:53:40;;;;;;;56.53;37.75;;;3.10;90.60;;;;;;5050934;28;20025;-78
2023/01/25 06:56:12;;;;;;;54.95;36.13;;;3.00;90.70;;;;;;5051315;28;20024;-79
2023/01/25 06:58:38;;;;;;;52.05;36.00;;;3.10;90.80;;;;;;5040167;28;20398;-79
2023/01/25 07:01:07;;;;;;;53.63;36.50;;;3.00;90.80;;;;;;5052918;28;20021;-79
2023/01/25 07:03:33;;;;;;;55.72;35.63;;;3.10;91.00;;;;;;5050731;28;20021;-79
2023/01/25 07:06:00;;;;;;;53.45;35.42;;;3.20;90.90;;;;;;5050029;28;20560;-77
2023/01/25 07:08:27;;;;;;;61.13;38.75;;;3.20;90.90;;;;;;5051420;28;20033;-77
2023/01/25 07:11:01;;;;;;;60.10;37.83;;;3.20;90.80;;;;;;5055420;28;20028;-77
2023/01/25 07:13:29;;;;;;;55.22;35.08;;;3.10;90.50;;;;;;5037879;28;20028;-79
2023/01/25 07:15:57;;;;;;;55.40;37.97;;;3.00;90.90;;;;;;5050265;28;20301;-77
2023/01/25 07:18:23;;;;;;;57.47;38.85;;;2.90;90.90;;;;;;5039971;28;20040;-77
2023/01/25 07:20:50;;;;;;;58.08;37.63;;;2.80;90.90;;;;;;5053240;28;20025;-77
2023/01/25 07:23:16;;;;;;;56.53;37.72;;;2.80;91.00;;;;;;5051720;28;20066;-78
2023/01/25 07:25:46;;;;;;;60.15;37.20;;;2.90;91.00;;;;;;5048450;28;20763;-77
2023/01/25 07:28:12;;;;;;;61.50;39.53;;;2.80;91.10;;;;;;5050296;28;20068;-78
2023/01/25 07:30:39;;;;;;;56.80;36.85;;;2.80;91.00;;;;;;5050356;28;20390;-77
2023/01/25 07:33:04;;;;;;;57.97;37.75;;;2.80;91.00;;;;;;5044521;28;20029;-77
2023/01/25 07:35:31;;;;;;;56.85;37.35;;;2.80;91.00;;;;;;5046142;28;20499;-78
2023/01/25 07:37:56;;;;;;;59.25;37.55;;;2.70;91.00;;;;;;5050689;28;20083;-78
2023/01/25 07:40:24;;;;;;;59.97;38.83;;;2.70;91.00;;;;;;5048167;28;20053;-79
2023/01/25 07:42:51;;;;;;;59.92;38.33;;;2.70;91.10;;;;;;5049024;28;20052;-78
2023/01/25 07:45:17;;;;;;;57.90;36.90;;;2.80;91.20;;;;;;5040466;28;20483;-78
2023/01/25 07:47:43;;;;;;;60.70;37.78;;;2.70;91.00;;;;;;5035018;28;20029;-79
2023/01/25 07:50:09;;;;;;;58.75;36.70;;;2.70;91.00;;;;;;5042249;28;20048;-79
2023/01/25 07:52:35;;;;;;;59.10;37.08;;;2.80;90.90;;;;;;5045659;28;20378;-78
2023/01/25 07:55:00;;;;;;;56.47;35.85;;;2.70;90.90;;;;;;5047884;28;20036;-78
2023/01/25 07:57:27;;;;;;;58.90;35.63;;;2.80;91.10;;;;;;5048302;28;20107;-79
2023/01/25 07:59:53;;;;;;;55.55;37.22;;;2.80;90.90;;;;;;5040311;28;20025;-78
2023/01/25 08:02:19;;;;;;;58.75;37.35;;;2.80;90.80;;;;;;5043880;28;20033;-78
2023/01/25 08:04:45;;;;;;;53.80;35.60;;;2.80;90.90;;;;;;5048499;28;20360;-77
2023/01/25 08:07:11;;;;;;;72.50;47.97;;;2.80;91.30;;;;;;5048489;28;20415;-78
2023/01/25 08:09:37;;;;;;;60.63;37.92;;;2.90;91.20;;;;;;5048241;28;20021;-77
2023/01/25 08:12:03;;;;;;;66.30;40.38;;;2.90;91.00;;;;;;5048626;28;20036;-78
2023/01/25 08:14:28;;;;;;;56.63;36.80;;;3.00;90.90;;;;;;5044381;28;20398;-78
2023/01/25 08:16:54;;;;;;;68.28;49.03;;;3.00;90.80;;;;;;5043394;28;20028;-78
2023/01/25 08:19:21;;;;;;;59.03;38.40;;;3.00;90.70;;;;;;5056891;28;20162;-78
2023/01/25 08:21:46;;;;;;;64.00;40.33;;;3.00;91.00;;;;;;5048301;28;20121;-79
2023/01/25 08:24:12;;;;;;;63.10;38.97;;;3.00;90.90;;;;;;5037204;28;20032;-79
2023/01/25 08:26:38;;;;;;;58.47;37.03;;;2.90;90.70;;;;;;5037215;28;20044;-78
2023/01/25 08:29:04;;;;;;;62.20;39.83;;;2.90;90.80;;;;;;5040229;28;20029;-78
2023/01/25 08:31:32;;;;;;;61.05;38.90;;;2.80;90.80;;;;;;5038198;28;20104;-78
2023/01/25 08:33:59;;;;;;;60.40;38.65;;;2.80;90.90;;;;;;5035226;28;20025;-75
2023/01/25 08:36:26;;;;;;;61.58;37.40;;;2.80;90.90;;;;;;5046244;28;20032;-78
2023/01/25 08:38:59;;;;;;;63.70;39.80;;;2.70;91.10;;;;;;5044148;28;20107;-78
2023/01/25 08:41:26;;;;;;;63.85;37.85;;;2.80;91.30;;;;;;5030914;28;20017;-79
2023/01/25 08:43:54;;;;;;;64.88;41.22;;;2.70;91.40;;;;;;5046868;28;20603;-77
2023/01/25 08:46:21;;;;;;;61.97;37.40;;;2.70;91.30;;;;;;5048593;28;20475;-79
2023/01/25 08:48:47;;;;;;;66.25;39.05;;;2.70;91.30;;;;;;5047004;28;20105;-78
2023/01/25 08:51:15;;;;;;;61.83;38.80;;;2.70;91.40;;;;;;5033839;28;20479;-79
2023/01/25 08:53:41;;;;;;;65.20;39.63;;;2.70;91.40;;;;;;5047130;28;20025;-79
2023/01/25 08:56:09;;;;;;;69.20;43.35;;;2.60;91.40;;;;;;5047345;28;20025;-78
2023/01/25 08:58:38;;;;;;;62.90;38.60;;;2.40;91.70;;;;;;5047866;28;20028;-78
2023/01/25 09:01:05;;;;;;;65.78;40.47;;;2.40;91.90;;;;;;5044219;28;20045;-78
2023/01/25 09:03:38;;;;;;;63.08;38.78;;;2.10;92.20;;;;;;5047107;28;20025;-78
2023/01/25 09:06:04;;;;;;;68.32;39.47;;;2.20;92.20;;;;;;5046071;28;20479;-77
2023/01/25 09:08:30;;;;;;;63.95;39.20;;;2.20;92.20;;;;;;5047036;28;20106;-78
2023/01/25 09:11:07;;;;;;;66.55;39.95;;;2.30;92.30;;;;;;5045547;28;20017;-78
2023/01/25 09:13:32;;;;;;;154.55;90.47;;;2.40;92.10;;;;;;5034262;28;20025;-77
2023/01/25 09:16:02;;;;;;;72.30;44.70;;;2.50;92.10;;;;;;5047286;28;20032;-79
2023/01/25 09:18:28;;;;;;;67.50;40.88;;;2.60;92.00;;;;;;5049074;28;20474;-78
2023/01/25 09:20:54;;;;;;;67.43;40.13;;;2.60;91.80;;;;;;5048342;28;20111;-78
2023/01/25 09:23:22;;;;;;;66.78;39.78;;;2.70;91.60;;;;;;5048821;28;20171;-78
2023/01/25 09:25:58;;;;;;;60.03;36.13;;;2.80;91.50;;;;;;5048530;28;20128;-79
2023/01/25 09:28:24;;;;;;;66.13;40.08;;;2.80;91.20;;;;;;5046792;28;20445;-79
2023/01/25 09:31:03;;;;;;;62.80;39.58;;;2.90;91.20;;;;;;5048477;28;20044;-79
2023/01/25 09:33:35;;;;;;;67.45;40.88;;;2.70;91.00;;;;;;5048732;28;20025;-78
2023/01/25 09:36:01;;;;;;;66.93;40.22;;;2.70;91.30;;;;;;5048408;28;20044;-77
2023/01/25 09:38:27;;;;;;;65.07;39.78;;;2.70;91.20;;;;;;5047550;28;20104;-78
2023/01/25 09:41:41;;;;;;;71.00;43.47;;;2.80;91.30;;;;;;5048998;28;20021;-77
2023/01/25 09:44:30;;;;;;;67.70;40.08;;;2.80;91.30;;;;;;5028996;28;20057;-78
2023/01/25 09:47:00;;;;;;;70.32;42.13;;;2.80;91.00;;;;;;5043628;28;20095;-78
2023/01/25 09:49:53;;;;;;;74.20;44.20;;;2.80;91.00;;;;;;5045101;28;20413;-79
2023/01/25 09:52:28;;;;;;;73.03;46.20;;;2.90;91.00;;;;;;5040928;28;20025;-78
2023/01/25 09:54:55;;;;;;;63.65;38.20;;;2.90;91.20;;;;;;5047587;28;20031;-78
2023/01/25 09:57:28;;;;;;;64.70;39.30;;;3.00;91.00;;;;;;5045872;28;20498;-78
2023/01/25 09:59:55;;;;;;;64.28;39.35;;;3.00;90.90;;;;;;5043567;28;20447;-79
2023/01/25 10:02:48;;;;;;;64.20;39.55;;;3.00;91.10;;;;;;5047802;28;20079;-79
2023/01/25 10:05:17;;;;;;;64.53;38.45;;;3.00;91.10;;;;;;5047718;28;20472;-78
2023/01/25 10:07:51;;;;;;;66.93;40.38;;;3.10;91.10;;;;;;5046145;28;20383;-78
2023/01/25 10:10:34;;;;;;;73.32;41.90;;;3.00;90.90;;;;;;5036246;28;20115;-79
2023/01/25 10:13:03;;;;;;;65.90;40.17;;;2.90;91.10;;;;;;5050734;28;20086;-76
2023/01/25 10:15:48;;;;;;;67.57;40.53;;;2.80;91.20;;;;;;5052111;28;20025;-77
2023/01/25 10:18:35;;;;;;;66.22;39.78;;;2.80;91.40;;;;;;5052694;28;20025;-77
2023/01/25 10:21:09;;;;;;;70.30;40.42;;;2.80;91.50;;;;;;5052208;28;20021;-77
2023/01/25 10:23:44;;;;;;;100.00;61.45;;;2.80;91.40;;;;;;5048072;28;20033;-77
2023/01/25 10:26:30;;;;;;;70.88;41.35;;;2.90;91.30;;;;;;5051965;28;20056;-77
2023/01/25 10:29:10;;;;;;;66.50;38.65;;;2.90;91.40;;;;;;5061692;28;20037;-78
2023/01/25 10:31:39;;;;;;;;;;;2.90;91.30;;;;;;5053120;28;20025;-77
2023/01/25 10:34:19;;;;;;;68.45;40.35;;;2.80;91.40;;;;;;5052626;28;19905;-76
2023/01/25 10:36:49;;;;;;;68.45;41.38;;;2.80;91.40;;;;;;5051760;28;20391;-77
2023/01/25 10:39:16;;;;;;;66.30;39.78;;;2.80;91.60;;;;;;5054811;28;20028;-78
2023/01/25 10:41:47;;;;;;;66.75;38.63;;;2.90;91.50;;;;;;5050496;28;20028;-78
2023/01/25 10:44:23;;;;;;;67.10;39.80;;;2.90;91.60;;;;;;5050257;28;20035;-79
2023/01/25 10:47:03;;;;;;;72.32;41.92;;;2.90;91.50;;;;;;5042771;28;20060;-78
2023/01/25 10:49:52;;;;;;;67.03;38.37;;;2.90;91.40;;;;;;5051400;28;20029;-78
2023/01/25 10:52:30;;;;;;;67.47;40.65;;;2.80;91.30;;;;;;5052088;28;20029;-77
2023/01/25 10:55:16;;;;;;;76.15;41.05;;;2.90;91.40;;;;;;5045238;28;20487;-77
2023/01/25 10:57:44;;;;;;;73.72;42.78;;;2.80;91.40;;;;;;5043984;28;20020;-78
2023/01/25 11:00:39;;;;;;;66.88;39.60;;;2.70;91.40;;;;;;5042902;28;20132;-78
2023/01/25 11:03:16;;;;;;;64.63;37.30;;;2.70;91.50;;;;;;5047053;28;20018;-77
2023/01/25 11:05:44;;;;;;;68.63;39.58;;;2.60;91.70;;;;;;5037463;28;20021;-78
2023/01/25 11:08:21;;;;;;;69.70;40.28;;;2.50;91.80;;;;;;5051520;28;20139;-77
2023/01/25 11:10:48;;;;;;;75.15;40.35;;;2.50;91.80;;;;;;5048533;28;20033;-78
2023/01/25 11:13:14;;;;;;;68.38;39.15;;;2.50;91.90;;;;;;5047785;28;20021;-78
2023/01/25 11:15:45;;;;;;;63.30;36.47;;;2.50;91.90;;;;;;5051585;28;20032;-79
2023/01/25 11:18:32;;;;;;;70.50;39.35;;;2.60;91.90;;;;;;5048327;28;20458;-78
2023/01/25 11:21:17;;;;;;;70.70;39.08;;;2.60;92.00;;;;;;5046548;28;20642;-78
2023/01/25 11:23:57;;;;;;;71.25;40.10;;;2.60;91.80;;;;;;5039079;28;20136;-78
2023/01/25 11:26:23;;;;;;;75.88;44.17;;;2.60;91.80;;;;;;5047422;28;20084;-78
2023/01/25 11:28:49;;;;;;;77.90;43.17;;;2.60;91.90;;;;;;5045029;28;20063;-78
2023/01/25 11:31:19;;;;;;;81.03;45.25;;;2.60;92.00;;;;;;5046114;28;20033;-78
2023/01/25 11:33:45;;;;;;;73.00;43.38;;;2.50;91.90;;;;;;5036239;28;20033;-77
2023/01/25 11:36:31;;;;;;;76.40;42.97;;;2.50;91.90;;;;;;5038378;28;20021;-75
2023/01/25 11:39:13;;;;;;;79.03;46.13;;;2.60;92.20;;;;;;5036973;28;20033;-77
2023/01/25 11:41:51;;;;;;;82.65;45.20;;;2.70;91.80;;;;;;5036902;28;20029;-77
2023/01/25 11:44:36;;;;;;;76.10;43.80;;;2.80;91.70;;;;;;5040270;28;20104;-78
2023/01/25 11:47:37;;;;;;;72.40;42.15;;;2.80;91.50;;;;;;5036588;28;20033;-77
2023/01/25 11:50:21;;;;;;;71.78;40.08;;;2.80;91.90;;;;;;5038666;28;20968;-76
2023/01/25 11:53:07;;;;;;;69.43;41.60;;;2.70;91.60;;;;;;5041087;28;20049;-76
2023/01/25 11:55:54;;;;;;;76.40;43.92;;;2.60;91.60;;;;;;5043285;28;20597;-76
2023/01/25 11:59:12;;;;;;;78.60;44.40;;;2.60;91.80;;;;;;5043416;28;20028;-77
2023/01/25 12:01:50;;;;;;;79.53;44.72;;;2.60;92.00;;;;;;5042581;28;20041;-74
2023/01/25 12:04:40;;;;;;;79.15;46.00;;;2.70;92.10;;;;;;5042250;28;20029;-74
2023/01/25 12:07:26;;;;;;;;;;;2.90;92.10;;;;;;5039278;28;21326;-75
2023/01/25 12:10:15;;;;;;;80.95;44.30;;;2.90;91.80;;;;;;5030350;28;19913;-75
2023/01/25 12:13:06;;;;;;;79.13;45.15;;;3.00;91.50;;;;;;5041560;28;20023;-76
2023/01/25 12:16:11;;;;;;;78.57;46.00;;;3.00;91.40;;;;;;5049564;28;20100;-76
2023/01/25 12:18:59;;;;;;;79.28;44.78;;;3.00;91.70;;;;;;5044719;28;20474;-75
2023/01/25 12:22:02;;;;;;;77.97;44.47;;;3.00;91.70;;;;;;5041952;28;20036;-75
2023/01/25 12:24:59;;;;;;;82.38;45.38;;;2.90;91.70;;;;;;5034146;28;20108;-75
2023/01/25 12:27:56;;;;;;;78.90;44.15;;;2.80;91.80;;;;;;5032716;28;20459;-75
2023/01/25 12:30:47;;;;;;;76.97;43.25;;;2.80;92.30;;;;;;5037720;28;20032;-76
2023/01/25 12:33:28;;;;;;;80.70;46.10;;;2.80;92.00;;;;;;5038985;28;20028;-78
2023/01/25 12:36:06;;;;;;;79.88;44.55;;;2.70;92.10;;;;;;5039330;28;20041;-76
2023/01/25 12:38:41;;;;;;;80.85;45.17;;;2.80;92.20;;;;;;5045063;28;20028;-77
2023/01/25 12:41:43;;;;;;;82.22;47.83;;;2.80;92.20;;;;;;5038573;28;20022;-74
2023/01/25 12:44:20;;;;;;;78.03;44.08;;;2.90;92.30;;;;;;5038940;28;20029;-73
2023/01/25 12:46:58;;;;;;;82.10;46.22;;;2.80;92.00;;;;;;5036804;28;20021;-74
2023/01/25 12:49:43;;;;;;;83.95;47.58;;;2.80;91.80;;;;;;5038220;28;20072;-74
2023/01/25 12:52:31;;;;;;;81.60;45.10;;;2.70;91.90;;;;;;5033582;28;20021;-74
2023/01/25 12:55:01;;;;;;;83.57;47.47;;;2.70;92.00;;;;;;5028227;28;20041;-74
2023/01/25 12:57:34;;;;;;;79.30;44.67;;;2.80;92.00;;;;;;5037007;28;20036;-74